sensor_id;sensor_type;location;lat;lon;timestamp;pressure;altitude;pressure_sealevel;temperature;humidity
50650;BME280;36621;60.058;30.346;2023-02-23T03:21:08;101825.97;;;-10.27;58.91
50650;BME280;36621;60.058;30.346;2023-02-23T03:29:06;101827.16;;;-10.07;58.86
50650;BME280;36621;60.058;30.346;2023-02-23T03:37:03;101816.09;;;-9.88;58.68
50650;BME280;36621;60.058;30.346;2023-02-23T03:45:05;101785.78;;;-9.96;57.90
50650;BME280;36621;60.058;30.346;2023-02-23T03:52:59;101765.88;;;-10.13;58.76
50650;BME280;36621;60.058;30.346;2023-02-23T04:00:52;101802.53;;;-9.60;59.31
50650;BME280;36621;60.058;30.346;2023-02-23T04:08:45;101806.72;;;-9.21;59.51
50650;BME280;36621;60.058;30.346;2023-02-23T04:16:37;101755.84;;;-9.36;59.26
50650;BME280;36621;60.058;30.346;2023-02-23T04:24:10;101708.31;;;-9.72;59.04
50650;BME280;36621;60.058;30.346;2023-02-23T04:31:42;101760.75;;;-9.43;59.18
50650;BME280;36621;60.058;30.346;2023-02-23T04:39:17;101742.97;;;-9.41;59.83
50650;BME280;36621;60.058;30.346;2023-02-23T04:46:49;101790.41;;;-9.04;59.89
50650;BME280;36621;60.058;30.346;2023-02-23T07:31:40;101590.88;;;-6.33;60.15
50650;BME280;36621;60.058;30.346;2023-02-23T07:39:12;101611.19;;;-5.75;59.25
50650;BME280;36621;60.058;30.346;2023-02-23T07:46:44;101604.25;;;-5.38;58.99
50650;BME280;36621;60.058;30.346;2023-02-23T07:54:17;101604.34;;;-5.02;58.33
50650;BME280;36621;60.058;30.346;2023-02-23T08:01:49;101590.44;;;-4.96;57.77
50650;BME280;36621;60.058;30.346;2023-02-23T08:09:21;101571.84;;;-5.06;57.88
50650;BME280;36621;60.058;30.346;2023-02-23T08:16:54;101584.59;;;-4.82;57.76
50650;BME280;36621;60.058;30.346;2023-02-23T08:24:28;101549.50;;;-4.59;57.49
50650;BME280;36621;60.058;30.346;2023-02-23T08:32:05;101581.75;;;-4.08;57.87
50650;BME280;36621;60.058;30.346;2023-02-23T08:39:39;101542.81;;;-4.19;57.07
50650;BME280;36621;60.058;30.346;2023-02-23T08:47:17;101560.31;;;-3.98;56.80
50650;BME280;36621;60.058;30.346;2023-02-23T08:54:53;101561.25;;;-4.08;56.91
50650;BME280;36621;60.058;30.346;2023-02-23T09:02:28;101550.31;;;-3.96;57.76
50650;BME280;36621;60.058;30.346;2023-02-23T09:10:01;101548.78;;;-3.73;57.02
50650;BME280;36621;60.058;30.346;2023-02-23T09:17:35;101520.75;;;-3.77;56.40
50650;BME280;36621;60.058;30.346;2023-02-23T09:25:07;101522.78;;;-3.71;56.32
50650;BME280;36621;60.058;30.346;2023-02-23T09:32:43;101509.06;;;-3.41;56.28
50650;BME280;36621;60.058;30.346;2023-02-23T09:40:17;101488.91;;;-3.27;56.31
50650;BME280;36621;60.058;30.346;2023-02-23T09:48:08;101480.94;;;-3.19;56.49
50650;BME280;36621;60.058;30.346;2023-02-23T09:55:41;101479.75;;;-3.25;56.09
50650;BME280;36621;60.058;30.346;2023-02-23T10:03:24;101462.38;;;-3.29;55.80
50650;BME280;36621;60.058;30.346;2023-02-23T10:11:03;101449.63;;;-3.52;55.21
50650;BME280;36621;60.058;30.346;2023-02-23T10:18:46;101438.84;;;-3.34;55.42
50650;BME280;36621;60.058;30.346;2023-02-23T10:26:25;101388.72;;;-3.56;54.70
50650;BME280;36621;60.058;30.346;2023-02-23T10:34:03;101319.56;;;-3.92;54.38
50650;BME280;36621;60.058;30.346;2023-02-23T10:41:37;101370.84;;;-3.56;54.68
50650;BME280;36621;60.058;30.346;2023-02-23T10:49:17;101352.81;;;-3.62;55.15
50650;BME280;36621;60.058;30.346;2023-02-23T10:56:52;101303.69;;;-4.02;54.60
50650;BME280;36621;60.058;30.346;2023-02-23T11:04:27;101348.47;;;-3.71;54.01
50650;BME280;36621;60.058;30.346;2023-02-23T11:12:01;101347.31;;;-3.60;54.82
50650;BME280;36621;60.058;30.346;2023-02-23T11:19:35;101333.66;;;-3.49;54.10
50650;BME280;36621;60.058;30.346;2023-02-23T11:27:19;101331.00;;;-3.33;54.03
50650;BME280;36621;60.058;30.346;2023-02-23T11:35:10;101320.97;;;-3.39;54.04
50650;BME280;36621;60.058;30.346;2023-02-23T11:42:51;101265.22;;;-3.83;53.94
50650;BME280;36621;60.058;30.346;2023-02-23T11:50:26;101252.38;;;-3.79;52.50
50650;BME280;36621;60.058;30.346;2023-02-23T11:58:16;101277.25;;;-3.29;53.54
50650;BME280;36621;60.058;30.346;2023-02-23T12:05:56;101219.19;;;-3.69;52.76
50650;BME280;36621;60.058;30.346;2023-02-23T12:13:33;101227.84;;;-3.58;53.05
50650;BME280;36621;60.058;30.346;2023-02-23T12:21:17;101218.19;;;-3.51;52.94
50650;BME280;36621;60.058;30.346;2023-02-23T12:28:55;101211.50;;;-3.47;53.18
50650;BME280;36621;60.058;30.346;2023-02-23T12:36:38;101199.16;;;-3.32;52.96
50650;BME280;36621;60.058;30.346;2023-02-23T12:44:23;101178.78;;;-3.33;53.10
50650;BME280;36621;60.058;30.346;2023-02-23T12:52:08;101147.94;;;-3.43;53.21
50650;BME280;36621;60.058;30.346;2023-02-23T13:00:06;101151.03;;;-3.15;53.48
50650;BME280;36621;60.058;30.346;2023-02-23T13:08:17;101136.66;;;-3.14;53.54
50650;BME280;36621;60.058;30.346;2023-02-23T13:16:17;101102.66;;;-3.28;53.35
50650;BME280;36621;60.058;30.346;2023-02-23T13:24:16;101092.97;;;-3.29;53.54
50650;BME280;36621;60.058;30.346;2023-02-23T13:31:52;101091.06;;;-3.52;54.06
50650;BME280;36621;60.058;30.346;2023-02-23T13:39:41;101063.16;;;-3.50;53.81
50650;BME280;36621;60.058;30.346;2023-02-23T13:47:33;101049.06;;;-3.67;54.51
50650;BME280;36621;60.058;30.346;2023-02-23T14:03:22;100883.94;;;-4.90;55.27
50650;BME280;36621;60.058;30.346;2023-02-23T14:10:55;100982.81;;;-4.19;55.42
50650;BME280;36621;60.058;30.346;2023-02-23T14:18:33;100962.97;;;-4.16;54.62
50650;BME280;36621;60.058;30.346;2023-02-23T14:34:06;100951.78;;;-4.12;54.93
50650;BME280;36621;60.058;30.346;2023-02-23T14:41:44;100964.41;;;-3.97;54.77
50650;BME280;36621;60.058;30.346;2023-02-23T14:49:24;100879.41;;;-4.57;54.25
50650;BME280;36621;60.058;30.346;2023-02-23T14:56:59;100900.53;;;-4.30;54.52
50650;BME280;36621;60.058;30.346;2023-02-23T15:04:32;100896.66;;;-4.28;55.21
50650;BME280;36621;60.058;30.346;2023-02-23T15:12:14;100869.69;;;-4.33;55.40
50650;BME280;36621;60.058;30.346;2023-02-23T15:19:51;100878.53;;;-4.41;56.30
50650;BME280;36621;60.058;30.346;2023-02-23T15:27:29;100866.00;;;-4.32;56.51
50650;BME280;36621;60.058;30.346;2023-02-23T15:35:09;100850.25;;;-4.42;56.51
50650;BME280;36621;60.058;30.346;2023-02-23T15:42:44;100841.78;;;-4.62;56.77
50650;BME280;36621;60.058;30.346;2023-02-23T15:50:21;100848.41;;;-4.49;57.14
50650;BME280;36621;60.058;30.346;2023-02-23T15:57:56;100839.06;;;-4.45;57.23
50650;BME280;36621;60.058;30.346;2023-02-23T16:05:32;100800.66;;;-4.67;57.79
50650;BME280;36621;60.058;30.346;2023-02-23T16:13:08;100811.16;;;-4.26;56.57
50650;BME280;36621;60.058;30.346;2023-02-23T16:20:47;100779.47;;;-4.61;57.70
50650;BME280;36621;60.058;30.346;2023-02-23T16:28:29;100788.25;;;-4.44;58.04
50650;BME280;36621;60.058;30.346;2023-02-23T16:36:15;100694.03;;;-4.99;57.52
50650;BME280;36621;60.058;30.346;2023-02-23T16:43:48;100717.13;;;-4.83;58.21
50650;BME280;36621;60.058;30.346;2023-02-23T16:51:23;100736.72;;;-4.67;58.68
50650;BME280;36621;60.058;30.346;2023-02-23T16:58:59;100733.00;;;-4.58;59.05
50650;BME280;36621;60.058;30.346;2023-02-23T17:06:32;100685.97;;;-4.74;58.53
50650;BME280;36621;60.058;30.346;2023-02-23T17:14:04;100691.06;;;-4.56;58.85
50650;BME280;36621;60.058;30.346;2023-02-23T17:21:36;100661.06;;;-4.58;58.58
50650;BME280;36621;60.058;30.346;2023-02-23T17:29:08;100626.31;;;-4.65;59.17
50650;BME280;36621;60.058;30.346;2023-02-23T17:36:41;100648.31;;;-4.40;58.72
50650;BME280;36621;60.058;30.346;2023-02-23T17:44:13;100620.47;;;-4.37;59.03
50650;BME280;36621;60.058;30.346;2023-02-23T17:51:46;100609.31;;;-4.41;59.29
50650;BME280;36621;60.058;30.346;2023-02-23T17:59:18;100585.22;;;-4.47;59.48
50650;BME280;36621;60.058;30.346;2023-02-23T18:06:50;100541.69;;;-4.63;59.86
50650;BME280;36621;60.058;30.346;2023-02-23T18:14:22;100564.00;;;-4.41;59.87
50650;BME280;36621;60.058;30.346;2023-02-23T18:21:55;100536.34;;;-4.40;60.28
50650;BME280;36621;60.058;30.346;2023-02-23T18:29:28;100463.84;;;-4.73;59.82
50650;BME280;36621;60.058;30.346;2023-02-23T18:37:01;100516.63;;;-4.30;60.08
50650;BME280;36621;60.058;30.346;2023-02-23T18:44:33;100462.72;;;-4.41;59.97
50650;BME280;36621;60.058;30.346;2023-02-23T18:52:07;100467.91;;;-4.24;60.43
50650;BME280;36621;60.058;30.346;2023-02-23T18:59:43;100444.19;;;-4.19;60.63
50650;BME280;36621;60.058;30.346;2023-02-23T19:07:16;100434.91;;;-4.23;60.81
50650;BME280;36621;60.058;30.346;2023-02-23T19:14:49;100418.81;;;-4.15;60.97
